sensor_id;sensor_type;location;lat;lon;timestamp;pressure;altitude;pressure_sealevel;temperature;humidity
78679;BME280;67994;59.334;13.528;2023-07-08T00:00:00;101500.0;;;16.0;74.1
78679;BME280;67994;59.334;13.528;2023-07-08T00:01:00;101500.0;;;16.0;73.9
78679;BME280;67994;59.334;13.528;2023-07-08T00:02:00;101500.0;;;15.9;74.1
78679;BME280;67994;59.334;13.528;2023-07-08T00:03:00;101500.0;;;15.9;74.0
78679;BME280;67994;59.334;13.528;2023-07-08T00:04:00;101500.0;;;15.9;74.2
78679;BME280;67994;59.334;13.528;2023-07-08T00:05:00;101500.0;;;15.9;74.2
78679;BME280;67994;59.334;13.528;2023-07-08T00:06:00;101500.0;;;15.8;74.3
78679;BME280;67994;59.334;13.528;2023-07-08T00:07:00;101500.0;;;15.8;74.3
78679;BME280;67994;59.334;13.528;2023-07-08T00:08:00;101500.0;;;15.8;74.5
78679;BME280;67994;59.334;13.528;2023-07-08T00:09:00;101500.0;;;15.7;74.7
78679;BME280;67994;59.334;13.528;2023-07-08T00:10:00;101500.0;;;15.8;74.2
78679;BME280;67994;59.334;13.528;2023-07-08T00:11:00;101500.0;;;15.7;74.4
78679;BME280;67994;59.334;13.528;2023-07-08T00:12:00;101500.0;;;15.7;74.2
78679;BME280;67994;59.334;13.528;2023-07-08T00:13:00;101500.0;;;15.7;74.6
78679;BME280;67994;59.334;13.528;2023-07-08T00:14:00;101500.0;;;15.6;74.9
78679;BME280;67994;59.334;13.528;2023-07-08T00:15:00;101500.0;;;15.6;75.0
78679;BME280;67994;59.334;13.528;2023-07-08T00:16:00;101500.0;;;15.7;74.4
78679;BME280;67994;59.334;13.528;2023-07-08T00:17:00;101500.0;;;15.7;74.6
78679;BME280;67994;59.334;13.528;2023-07-08T00:18:01;101500.0;;;15.7;74.5
78679;BME280;67994;59.334;13.528;2023-07-08T00:19:00;101500.0;;;15.6;75.0
78679;BME280;67994;59.334;13.528;2023-07-08T00:20:00;101500.0;;;15.6;75.0
78679;BME280;67994;59.334;13.528;2023-07-08T00:21:00;101500.0;;;15.7;74.6
78679;BME280;67994;59.334;13.528;2023-07-08T00:22:00;101500.0;;;15.6;74.9
78679;BME280;67994;59.334;13.528;2023-07-08T00:23:00;101500.0;;;15.6;74.6
78679;BME280;67994;59.334;13.528;2023-07-08T00:24:00;101500.0;;;15.6;74.9
78679;BME280;67994;59.334;13.528;2023-07-08T00:25:00;101500.0;;;15.6;74.9
78679;BME280;67994;59.334;13.528;2023-07-08T00:26:00;101500.0;;;15.6;75.5
78679;BME280;67994;59.334;13.528;2023-07-08T00:27:01;101500.0;;;15.4;75.8
78679;BME280;67994;59.334;13.528;2023-07-08T00:28:01;101500.0;;;15.7;74.2
78679;BME280;67994;59.334;13.528;2023-07-08T00:29:00;101500.0;;;15.5;75.5
78679;BME280;67994;59.334;13.528;2023-07-08T00:30:00;101500.0;;;15.5;75.3
78679;BME280;67994;59.334;13.528;2023-07-08T00:31:00;101500.0;;;15.5;75.3
78679;BME280;67994;59.334;13.528;2023-07-08T00:32:00;101500.0;;;15.6;75.2
78679;BME280;67994;59.334;13.528;2023-07-08T00:33:00;101500.0;;;15.5;75.7
78679;BME280;67994;59.334;13.528;2023-07-08T00:34:00;101500.0;;;15.4;75.9
78679;BME280;67994;59.334;13.528;2023-07-08T00:35:00;101500.0;;;15.3;75.8
78679;BME280;67994;59.334;13.528;2023-07-08T00:36:00;101500.0;;;15.3;76.1
78679;BME280;67994;59.334;13.528;2023-07-08T00:37:00;101500.0;;;15.3;76.1
78679;BME280;67994;59.334;13.528;2023-07-08T00:38:01;101500.0;;;15.4;75.6
78679;BME280;67994;59.334;13.528;2023-07-08T00:39:00;101500.0;;;15.4;76.6
78679;BME280;67994;59.334;13.528;2023-07-08T00:40:00;101500.0;;;15.3;76.3
78679;BME280;67994;59.334;13.528;2023-07-08T00:41:06;101500.0;;;15.3;76.4
78679;BME280;67994;59.334;13.528;2023-07-08T00:42:01;101500.0;;;15.2;76.3
78679;BME280;67994;59.334;13.528;2023-07-08T00:43:02;101500.0;;;15.2;76.3
78679;BME280;67994;59.334;13.528;2023-07-08T00:44:00;101500.0;;;15.4;76.1
78679;BME280;67994;59.334;13.528;2023-07-08T00:45:00;101500.0;;;15.2;76.6
78679;BME280;67994;59.334;13.528;2023-07-08T00:46:12;101500.0;;;15.4;76.0
78679;BME280;67994;59.334;13.528;2023-07-08T00:47:04;101500.0;;;15.4;76.0
78679;BME280;67994;59.334;13.528;2023-07-08T00:48:06;101500.0;;;15.4;75.6
78679;BME280;67994;59.334;13.528;2023-07-08T00:49:09;101500.0;;;15.4;75.6
78679;BME280;67994;59.334;13.528;2023-07-08T00:50:02;101500.0;;;15.5;75.1
78679;BME280;67994;59.334;13.528;2023-07-08T00:51:00;101500.0;;;15.3;75.9
78679;BME280;67994;59.334;13.528;2023-07-08T00:52:15;101500.0;;;15.4;76.1
78679;BME280;67994;59.334;13.528;2023-07-08T00:54:00;101500.0;;;15.4;76.2
78679;BME280;67994;59.334;13.528;2023-07-08T00:55:06;101500.0;;;15.3;76.2
78679;BME280;67994;59.334;13.528;2023-07-08T00:56:02;101500.0;;;15.4;75.8
78679;BME280;67994;59.334;13.528;2023-07-08T00:57:01;101500.0;;;15.3;75.5
78679;BME280;67994;59.334;13.528;2023-07-08T00:58:00;101500.0;;;15.2;76.1
78679;BME280;67994;59.334;13.528;2023-07-08T00:59:03;101500.0;;;15.1;76.9
78679;BME280;67994;59.334;13.528;2023-07-08T01:00:03;101500.0;;;15.1;76.4
78679;BME280;67994;59.334;13.528;2023-07-08T01:01:01;101500.0;;;15.1;76.3
78679;BME280;67994;59.334;13.528;2023-07-08T01:02:02;101500.0;;;15.1;76.3
78679;BME280;67994;59.334;13.528;2023-07-08T01:03:01;101500.0;;;15.2;76.3
78679;BME280;67994;59.334;13.528;2023-07-08T01:04:04;101500.0;;;15.2;76.3
78679;BME280;67994;59.334;13.528;2023-07-08T01:05:04;101500.0;;;15.1;76.8
78679;BME280;67994;59.334;13.528;2023-07-08T01:06:00;101500.0;;;15.1;76.8
78679;BME280;67994;59.334;13.528;2023-07-08T01:07:01;101500.0;;;15.1;77.1
78679;BME280;67994;59.334;13.528;2023-07-08T01:08:02;101500.0;;;15.1;77.1
78679;BME280;67994;59.334;13.528;2023-07-08T01:09:03;101500.0;;;15.1;76.7
78679;BME280;67994;59.334;13.528;2023-07-08T01:10:03;101500.0;;;15.1;76.6
78679;BME280;67994;59.334;13.528;2023-07-08T01:11:02;101500.0;;;15.1;76.9
78679;BME280;67994;59.334;13.528;2023-07-08T01:12:02;101500.0;;;15.0;76.9
78679;BME280;67994;59.334;13.528;2023-07-08T01:13:04;101500.0;;;15.1;76.9
78679;BME280;67994;59.334;13.528;2023-07-08T01:14:01;101500.0;;;15.0;77.2
78679;BME280;67994;59.334;13.528;2023-07-08T01:15:01;101500.0;;;14.9;77.8
78679;BME280;67994;59.334;13.528;2023-07-08T01:16:00;101500.0;;;14.9;77.9
78679;BME280;67994;59.334;13.528;2023-07-08T01:17:00;101500.0;;;14.9;77.5
78679;BME280;67994;59.334;13.528;2023-07-08T01:18:00;101500.0;;;15.0;77.2
78679;BME280;67994;59.334;13.528;2023-07-08T01:19:01;101500.0;;;14.9;77.8
78679;BME280;67994;59.334;13.528;2023-07-08T01:20:01;101500.0;;;14.8;77.8
78679;BME280;67994;59.334;13.528;2023-07-08T01:21:02;101500.0;;;14.9;77.8
78679;BME280;67994;59.334;13.528;2023-07-08T01:22:01;101500.0;;;14.8;77.8
78679;BME280;67994;59.334;13.528;2023-07-08T01:23:00;101500.0;;;14.9;77.7
78679;BME280;67994;59.334;13.528;2023-07-08T01:24:02;101500.0;;;14.8;77.8
78679;BME280;67994;59.334;13.528;2023-07-08T01:25:01;101500.0;;;14.9;77.5
78679;BME280;67994;59.334;13.528;2023-07-08T01:26:00;101500.0;;;14.9;77.1
78679;BME280;67994;59.334;13.528;2023-07-08T01:27:02;101500.0;;;14.9;77.4
78679;BME280;67994;59.334;13.528;2023-07-08T01:28:00;101500.0;;;15.0;77.1
78679;BME280;67994;59.334;13.528;2023-07-08T01:29:01;101500.0;;;14.9;77.4
78679;BME280;67994;59.334;13.528;2023-07-08T01:30:01;101500.0;;;14.9;76.9
78679;BME280;67994;59.334;13.528;2023-07-08T01:31:00;101500.0;;;14.8;77.1
78679;BME280;67994;59.334;13.528;2023-07-08T01:32:00;101500.0;;;14.8;77.4
78679;BME280;67994;59.334;13.528;2023-07-08T01:33:04;101500.0;;;14.8;77.4
78679;BME280;67994;59.334;13.528;2023-07-08T01:34:00;101500.0;;;14.7;77.4
78679;BME280;67994;59.334;13.528;2023-07-08T01:35:01;101500.0;;;14.7;77.1
78679;BME280;67994;59.334;13.528;2023-07-08T01:36:00;101500.0;;;14.6;77.6
78679;BME280;67994;59.334;13.528;2023-07-08T01:37:02;101500.0;;;14.7;77.1
78679;BME280;67994;59.334;13.528;2023-07-08T01:38:03;101500.0;;;14.6;77.4
78679;BME280;67994;59.334;13.528;2023-07-08T01:39:00;101500.0;;;14.6;77.6
78679;BME280;67994;59.334;13.528;2023-07-08T01:40:14;101500.0;;;14.5;77.6
78679;BME280;67994;59.334;13.528;2023-07-08T01:41:00;101500.0;;;14.5;77.6
78679;BME280;67994;59.334;13.528;2023-07-08T01:42:00;101500.0;;;14.6;77.9
78679;BME280;67994;59.334;13.528;2023-07-08T01:43:01;101500.0;;;14.6;78.0
78679;BME280;67994;59.334;13.528;2023-07-08T01:44:00;101500.0;;;14.7;77.5
78679;BME280;67994;59.334;13.528;2023-07-08T01:45:00;101500.0;;;14.6;77.6
78679;BME280;67994;59.334;13.528;2023-07-08T01:46:01;101500.0;;;14.6;77.7
78679;BME280;67994;59.334;13.528;2023-07-08T01:47:02;101500.0;;;14.6;77.7
78679;BME280;67994;59.334;13.528;2023-07-08T01:48:02;101500.0;;;14.6;78.0
78679;BME280;67994;59.334;13.528;2023-07-08T01:49:01;101500.0;;;14.6;78.0
78679;BME280;67994;59.334;13.528;2023-07-08T01:50:00;101500.0;;;14.6;77.6
78679;BME280;67994;59.334;13.528;2023-07-08T01:51:03;101500.0;;;14.6;77.4
78679;BME280;67994;59.334;13.528;2023-07-08T01:52:01;101500.0;;;14.5;77.8
78679;BME280;67994;59.334;13.528;2023-07-08T01:53:02;101500.0;;;14.5;77.9
78679;BME280;67994;59.334;13.528;2023-07-08T01:54:00;101500.0;;;14.5;78.1
78679;BME280;67994;59.334;13.528;2023-07-08T01:55:00;101500.0;;;14.6;77.4
78679;BME280;67994;59.334;13.528;2023-07-08T01:56:00;101500.0;;;14.6;77.5
78679;BME280;67994;59.334;13.528;2023-07-08T01:57:00;101500.0;;;14.5;77.7
78679;BME280;67994;59.334;13.528;2023-07-08T01:58:00;101500.0;;;14.6;77.7
78679;BME280;67994;59.334;13.528;2023-07-08T01:59:00;101500.0;;;14.5;77.7
78679;BME280;67994;59.334;13.528;2023-07-08T02:00:00;101500.0;;;14.5;77.7
78679;BME280;67994;59.334;13.528;2023-07-08T02:01:00;101500.0;;;14.5;77.6
78679;BME280;67994;59.334;13.528;2023-07-08T02:02:00;101500.0;;;14.5;77.7
78679;BME280;67994;59.334;13.528;2023-07-08T02:03:00;101500.0;;;14.5;78.0
78679;BME280;67994;59.334;13.528;2023-07-08T02:04:00;101500.0;;;14.5;78.0
78679;BME280;67994;59.334;13.528;2023-07-08T02:05:00;101500.0;;;14.5;78.0
78679;BME280;67994;59.334;13.528;2023-07-08T02:06:00;101500.0;;;14.5;78.1
78679;BME280;67994;59.334;13.528;2023-07-08T02:07:00;101500.0;;;14.6;77.6
78679;BME280;67994;59.334;13.528;2023-07-08T02:08:00;101500.0;;;14.7;76.8
78679;BME280;67994;59.334;13.528;2023-07-08T02:09:00;101500.0;;;14.8;76.2
78679;BME280;67994;59.334;13.528;2023-07-08T02:10:00;101500.0;;;14.9;76.1
78679;BME280;67994;59.334;13.528;2023-07-08T02:11:00;101500.0;;;14.7;77.3
78679;BME280;67994;59.334;13.528;2023-07-08T02:12:00;101500.0;;;14.7;77.6
78679;BME280;67994;59.334;13.528;2023-07-08T02:13:00;101500.0;;;14.8;77.2
78679;BME280;67994;59.334;13.528;2023-07-08T02:14:00;101500.0;;;14.6;77.9
78679;BME280;67994;59.334;13.528;2023-07-08T02:15:01;101500.0;;;14.6;77.8
78679;BME280;67994;59.334;13.528;2023-07-08T02:16:00;101500.0;;;14.6;77.6
78679;BME280;67994;59.334;13.528;2023-07-08T02:17:00;101500.0;;;14.6;77.8
78679;BME280;67994;59.334;13.528;2023-07-08T02:18:00;101500.0;;;14.6;77.6
78679;BME280;67994;59.334;13.528;2023-07-08T02:19:00;101500.0;;;14.6;77.7
78679;BME280;67994;59.334;13.528;2023-07-08T02:20:00;101500.0;;;14.7;77.5
78679;BME280;67994;59.334;13.528;2023-07-08T02:21:00;101500.0;;;14.7;77.5
78679;BME280;67994;59.334;13.528;2023-07-08T02:22:00;101500.0;;;14.7;77.1
78679;BME280;67994;59.334;13.528;2023-07-08T02:23:00;101500.0;;;14.7;76.9
78679;BME280;67994;59.334;13.528;2023-07-08T02:24:01;101500.0;;;14.7;77.3
78679;BME280;67994;59.334;13.528;2023-07-08T02:25:00;101500.0;;;14.6;77.3
78679;BME280;67994;59.334;13.528;2023-07-08T02:26:00;101500.0;;;14.6;77.3
78679;BME280;67994;59.334;13.528;2023-07-08T02:27:00;101500.0;;;14.6;77.3
78679;BME280;67994;59.334;13.528;2023-07-08T02:28:00;101500.0;;;14.6;77.4
78679;BME280;67994;59.334;13.528;2023-07-08T02:29:00;101500.0;;;14.6;77.4
78679;BME280;67994;59.334;13.528;2023-07-08T02:30:00;101500.0;;;14.6;77.4
78679;BME280;67994;59.334;13.528;2023-07-08T02:31:02;101500.0;;;14.6;77.2
78679;BME280;67994;59.334;13.528;2023-07-08T02:32:00;101500.0;;;14.8;76.7
78679;BME280;67994;59.334;13.528;2023-07-08T02:33:00;101500.0;;;14.8;76.6
78679;BME280;67994;59.334;13.528;2023-07-08T02:34:00;101500.0;;;14.7;77.3
78679;BME280;67994;59.334;13.528;2023-07-08T02:35:00;101500.0;;;14.6;77.9
78679;BME280;67994;59.334;13.528;2023-07-08T02:36:00;101500.0;;;14.6;77.9
78679;BME280;67994;59.334;13.528;2023-07-08T02:37:00;101500.0;;;14.5;78.6
78679;BME280;67994;59.334;13.528;2023-07-08T02:38:00;101500.0;;;14.6;78.0
78679;BME280;67994;59.334;13.528;2023-07-08T02:39:00;101500.0;;;14.7;77.5
78679;BME280;67994;59.334;13.528;2023-07-08T02:40:00;101500.0;;;14.8;77.3
78679;BME280;67994;59.334;13.528;2023-07-08T02:41:00;101500.0;;;14.9;76.6
78679;BME280;67994;59.334;13.528;2023-07-08T02:42:00;101500.0;;;15.2;75.5
78679;BME280;67994;59.334;13.528;2023-07-08T02:43:00;101500.0;;;15.2;76.8
78679;BME280;67994;59.334;13.528;2023-07-08T02:44:00;101500.0;;;15.3;76.5
78679;BME280;67994;59.334;13.528;2023-07-08T02:45:00;101500.0;;;15.4;76.2
78679;BME280;67994;59.334;13.528;2023-07-08T02:46:00;101500.0;;;15.5;75.9
78679;BME280;67994;59.334;13.528;2023-07-08T02:47:00;101500.0;;;15.6;75.6
78679;BME280;67994;59.334;13.528;2023-07-08T02:48:00;101500.0;;;15.9;75.3
78679;BME280;67994;59.334;13.528;2023-07-08T02:49:00;101500.0;;;16.0;74.8
78679;BME280;67994;59.334;13.528;2023-07-08T02:50:00;101500.0;;;16.2;74.5
78679;BME280;67994;59.334;13.528;2023-07-08T02:51:01;101500.0;;;16.3;74.0
78679;BME280;67994;59.334;13.528;2023-07-08T02:52:00;101500.0;;;16.5;73.1
78679;BME280;67994;59.334;13.528;2023-07-08T02:53:00;101500.0;;;16.5;73.1
78679;BME280;67994;59.334;13.528;2023-07-08T02:54:00;101500.0;;;16.4;73.2
78679;BME280;67994;59.334;13.528;2023-07-08T02:55:00;101500.0;;;16.4;73.2
78679;BME280;67994;59.334;13.528;2023-07-08T02:56:00;101500.0;;;16.4;72.5
78679;BME280;67994;59.334;13.528;2023-07-08T02:57:00;101500.0;;;16.2;73.3
78679;BME280;67994;59.334;13.528;2023-07-08T02:58:00;101500.0;;;16.2;73.6
78679;BME280;67994;59.334;13.528;2023-07-08T02:59:00;101500.0;;;16.0;74.1
78679;BME280;67994;59.334;13.528;2023-07-08T03:00:00;101500.0;;;16.0;74.1
78679;BME280;67994;59.334;13.528;2023-07-08T03:01:00;101500.0;;;15.9;74.0
78679;BME280;67994;59.334;13.528;2023-07-08T03:02:00;101500.0;;;15.9;75.0
78679;BME280;67994;59.334;13.528;2023-07-08T03:03:00;101600.0;;;16.0;74.8
78679;BME280;67994;59.334;13.528;2023-07-08T03:04:00;101600.0;;;16.5;74.8
78679;BME280;67994;59.334;13.528;2023-07-08T03:05:00;101600.0;;;16.6;73.6
78679;BME280;67994;59.334;13.528;2023-07-08T03:06:02;101600.0;;;16.7;73.2
78679;BME280;67994;59.334;13.528;2023-07-08T03:07:00;101600.0;;;16.8;73.6
78679;BME280;67994;59.334;13.528;2023-07-08T03:08:00;101600.0;;;17.1;72.6
78679;BME280;67994;59.334;13.528;2023-07-08T03:09:00;101600.0;;;17.3;71.6
78679;BME280;67994;59.334;13.528;2023-07-08T03:10:00;101600.0;;;17.7;71.3
78679;BME280;67994;59.334;13.528;2023-07-08T03:11:03;101500.0;;;17.7;71.2
78679;BME280;67994;59.334;13.528;2023-07-08T03:12:00;101500.0;;;17.7;71.1
78679;BME280;67994;59.334;13.528;2023-07-08T03:13:00;101500.0;;;17.7;71.0
78679;BME280;67994;59.334;13.528;2023-07-08T03:14:00;101500.0;;;17.7;70.5
78679;BME280;67994;59.334;13.528;2023-07-08T03:15:00;101600.0;;;17.9;70.5
78679;BME280;67994;59.334;13.528;2023-07-08T03:16:01;101500.0;;;18.2;69.8
78679;BME280;67994;59.334;13.528;2023-07-08T03:17:00;101500.0;;;18.3;69.8
78679;BME280;67994;59.334;13.528;2023-07-08T03:18:00;101500.0;;;18.5;69.1
78679;BME280;67994;59.334;13.528;2023-07-08T03:19:00;101500.0;;;18.9;68.4
78679;BME280;67994;59.334;13.528;2023-07-08T03:20:00;101500.0;;;19.1;68.2
78679;BME280;67994;59.334;13.528;2023-07-08T03:21:00;101600.0;;;19.0;67.5
78679;BME280;67994;59.334;13.528;2023-07-08T03:22:00;101600.0;;;19.2;68.5
78679;BME280;67994;59.334;13.528;2023-07-08T03:23:00;101500.0;;;19.2;68.2
78679;BME280;67994;59.334;13.528;2023-07-08T03:24:00;101500.0;;;19.1;68.2
78679;BME280;67994;59.334;13.528;2023-07-08T03:25:00;101500.0;;;19.1;68.3
78679;BME280;67994;59.334;13.528;2023-07-08T03:26:00;101500.0;;;19.3;68.1
78679;BME280;67994;59.334;13.528;2023-07-08T03:27:00;101500.0;;;19.5;67.0
78679;BME280;67994;59.334;13.528;2023-07-08T03:28:00;101500.0;;;19.4;67.7
78679;BME280;67994;59.334;13.528;2023-07-08T03:29:00;101500.0;;;19.7;66.9
78679;BME280;67994;59.334;13.528;2023-07-08T03:30:00;101500.0;;;19.4;67.6
78679;BME280;67994;59.334;13.528;2023-07-08T03:31:00;101500.0;;;19.3;68.3
78679;BME280;67994;59.334;13.528;2023-07-08T03:32:00;101500.0;;;19.3;67.9
78679;BME280;67994;59.334;13.528;2023-07-08T03:33:00;101500.0;;;19.7;66.7
78679;BME280;67994;59.334;13.528;2023-07-08T03:34:00;101500.0;;;19.6;67.4
78679;BME280;67994;59.334;13.528;2023-07-08T03:35:00;101500.0;;;19.3;68.3
78679;BME280;67994;59.334;13.528;2023-07-08T03:36:00;101500.0;;;19.6;67.5
78679;BME280;67994;59.334;13.528;2023-07-08T03:37:00;101600.0;;;20.0;66.0
78679;BME280;67994;59.334;13.528;2023-07-08T03:38:00;101600.0;;;20.0;64.5
78679;BME280;67994;59.334;13.528;2023-07-08T03:39:00;101500.0;;;20.1;66.0
78679;BME280;67994;59.334;13.528;2023-07-08T03:40:00;101600.0;;;19.6;67.8
78679;BME280;67994;59.334;13.528;2023-07-08T03:41:00;101600.0;;;19.4;67.8
78679;BME280;67994;59.334;13.528;2023-07-08T03:42:00;101600.0;;;19.7;68.1
78679;BME280;67994;59.334;13.528;2023-07-08T03:43:00;101600.0;;;20.1;66.5
78679;BME280;67994;59.334;13.528;2023-07-08T03:44:00;101600.0;;;20.3;65.9
78679;BME280;67994;59.334;13.528;2023-07-08T03:45:00;101500.0;;;20.1;66.3
78679;BME280;67994;59.334;13.528;2023-07-08T03:46:00;101500.0;;;20.3;65.9
78679;BME280;67994;59.334;13.528;2023-07-08T03:47:00;101500.0;;;20.3;65.9
78679;BME280;67994;59.334;13.528;2023-07-08T03:48:00;101500.0;;;20.3;66.1
78679;BME280;67994;59.334;13.528;2023-07-08T03:49:00;101500.0;;;20.2;66.6
78679;BME280;67994;59.334;13.528;2023-07-08T03:50:00;101600.0;;;20.1;66.8
78679;BME280;67994;59.334;13.528;2023-07-08T03:51:00;101600.0;;;19.9;67.5
78679;BME280;67994;59.334;13.528;2023-07-08T03:52:00;101600.0;;;20.3;66.1
78679;BME280;67994;59.334;13.528;2023-07-08T03:53:00;101600.0;;;20.3;66.1
78679;BME280;67994;59.334;13.528;2023-07-08T03:54:00;101600.0;;;20.1;66.4
78679;BME280;67994;59.334;13.528;2023-07-08T03:55:00;101600.0;;;20.7;64.9
78679;BME280;67994;59.334;13.528;2023-07-08T03:56:00;101600.0;;;20.7;66.1
78679;BME280;67994;59.334;13.528;2023-07-08T03:57:00;101600.0;;;20.4;65.9
78679;BME280;67994;59.334;13.528;2023-07-08T03:58:00;101600.0;;;21.1;63.8
78679;BME280;67994;59.334;13.528;2023-07-08T03:59:00;101600.0;;;21.0;64.4
78679;BME280;67994;59.334;13.528;2023-07-08T04:00:00;101600.0;;;21.3;63.1
78679;BME280;67994;59.334;13.528;2023-07-08T04:01:00;101600.0;;;21.1;64.8
78679;BME280;67994;59.334;13.528;2023-07-08T04:02:00;101600.0;;;20.7;65.0
78679;BME280;67994;59.334;13.528;2023-07-08T04:03:00;101600.0;;;20.5;65.8
78679;BME280;67994;59.334;13.528;2023-07-08T04:04:00;101600.0;;;20.7;64.9
78679;BME280;67994;59.334;13.528;2023-07-08T04:05:00;101600.0;;;20.7;64.7
78679;BME280;67994;59.334;13.528;2023-07-08T04:06:00;101600.0;;;21.4;63.1
78679;BME280;67994;59.334;13.528;2023-07-08T04:07:00;101600.0;;;21.5;62.6
78679;BME280;67994;59.334;13.528;2023-07-08T04:08:00;101600.0;;;20.4;66.0
78679;BME280;67994;59.334;13.528;2023-07-08T04:09:00;101600.0;;;20.6;65.0
78679;BME280;67994;59.334;13.528;2023-07-08T04:10:00;101600.0;;;20.3;66.5
78679;BME280;67994;59.334;13.528;2023-07-08T04:11:00;101600.0;;;20.4;66.0
78679;BME280;67994;59.334;13.528;2023-07-08T04:12:00;101600.0;;;21.0;64.7
78679;BME280;67994;59.334;13.528;2023-07-08T04:13:00;101600.0;;;21.2;64.2
78679;BME280;67994;59.334;13.528;2023-07-08T04:14:00;101600.0;;;21.2;64.1
78679;BME280;67994;59.334;13.528;2023-07-08T04:15:00;101600.0;;;21.4;63.5
78679;BME280;67994;59.334;13.528;2023-07-08T04:16:02;101600.0;;;21.3;63.8
78679;BME280;67994;59.334;13.528;2023-07-08T04:17:00;101600.0;;;21.3;63.7
78679;BME280;67994;59.334;13.528;2023-07-08T04:18:00;101600.0;;;21.5;62.6
78679;BME280;67994;59.334;13.528;2023-07-08T04:19:00;101600.0;;;21.4;63.6
78679;BME280;67994;59.334;13.528;2023-07-08T04:20:00;101600.0;;;21.1;63.6
78679;BME280;67994;59.334;13.528;2023-07-08T04:21:00;101600.0;;;21.0;64.7
78679;BME280;67994;59.334;13.528;2023-07-08T04:22:01;101600.0;;;21.0;64.6
78679;BME280;67994;59.334;13.528;2023-07-08T04:23:00;101600.0;;;21.1;64.1
78679;BME280;67994;59.334;13.528;2023-07-08T04:24:00;101600.0;;;21.4;64.1
78679;BME280;67994;59.334;13.528;2023-07-08T04:25:00;101600.0;;;21.0;64.3
78679;BME280;67994;59.334;13.528;2023-07-08T04:26:01;101600.0;;;21.4;63.9
78679;BME280;67994;59.334;13.528;2023-07-08T04:27:00;101600.0;;;21.2;63.5
78679;BME280;67994;59.334;13.528;2023-07-08T04:28:00;101600.0;;;20.9;64.8
78679;BME280;67994;59.334;13.528;2023-07-08T04:29:00;101600.0;;;21.0;64.8
78679;BME280;67994;59.334;13.528;2023-07-08T04:30:00;101600.0;;;21.4;64.0
78679;BME280;67994;59.334;13.528;2023-07-08T04:31:00;101600.0;;;21.4;64.2
78679;BME280;67994;59.334;13.528;2023-07-08T04:32:00;101600.0;;;21.1;64.1
78679;BME280;67994;59.334;13.528;2023-07-08T04:33:00;101600.0;;;21.0;65.0
78679;BME280;67994;59.334;13.528;2023-07-08T04:34:00;101600.0;;;20.8;65.2
78679;BME280;67994;59.334;13.528;2023-07-08T04:35:00;101600.0;;;20.3;66.6
78679;BME280;67994;59.334;13.528;2023-07-08T04:36:00;101600.0;;;20.7;64.9
78679;BME280;67994;59.334;13.528;2023-07-08T04:37:00;101600.0;;;20.6;66.7
78679;BME280;67994;59.334;13.528;2023-07-08T04:38:00;101600.0;;;20.9;66.0
78679;BME280;67994;59.334;13.528;2023-07-08T04:39:00;101600.0;;;21.1;65.7
78679;BME280;67994;59.334;13.528;2023-07-08T04:40:00;101600.0;;;21.1;65.7
78679;BME280;67994;59.334;13.528;2023-07-08T04:41:00;101600.0;;;21.2;65.7
78679;BME280;67994;59.334;13.528;2023-07-08T04:42:00;101600.0;;;20.9;66.3
78679;BME280;67994;59.334;13.528;2023-07-08T04:43:00;101600.0;;;20.9;65.6
78679;BME280;67994;59.334;13.528;2023-07-08T04:44:00;101600.0;;;20.7;66.1
78679;BME280;67994;59.334;13.528;2023-07-08T04:45:00;101600.0;;;20.0;67.1
78679;BME280;67994;59.334;13.528;2023-07-08T04:46:00;101600.0;;;20.0;67.8
78679;BME280;67994;59.334;13.528;2023-07-08T04:47:00;101600.0;;;20.1;67.3
78679;BME280;67994;59.334;13.528;2023-07-08T04:48:00;101600.0;;;20.3;67.6
78679;BME280;67994;59.334;13.528;2023-07-08T04:49:00;101600.0;;;20.4;67.4
78679;BME280;67994;59.334;13.528;2023-07-08T04:50:00;101600.0;;;20.5;66.8
78679;BME280;67994;59.334;13.528;2023-07-08T04:51:00;101600.0;;;20.4;66.6
78679;BME280;67994;59.334;13.528;2023-07-08T04:52:00;101600.0;;;20.4;66.6
78679;BME280;67994;59.334;13.528;2023-07-08T04:53:00;101600.0;;;20.4;67.2
78679;BME280;67994;59.334;13.528;2023-07-08T04:54:00;101600.0;;;20.5;66.5
78679;BME280;67994;59.334;13.528;2023-07-08T04:55:00;101600.0;;;20.5;67.3
78679;BME280;67994;59.334;13.528;2023-07-08T04:56:00;101600.0;;;20.5;67.2
78679;BME280;67994;59.334;13.528;2023-07-08T04:57:00;101600.0;;;20.5;67.0
78679;BME280;67994;59.334;13.528;2023-07-08T04:58:00;101600.0;;;20.7;65.9
78679;BME280;67994;59.334;13.528;2023-07-08T04:59:00;101600.0;;;20.7;65.9
78679;BME280;67994;59.334;13.528;2023-07-08T05:00:00;101600.0;;;20.9;67.1
78679;BME280;67994;59.334;13.528;2023-07-08T05:01:00;101600.0;;;20.0;68.3
78679;BME280;67994;59.334;13.528;2023-07-08T05:02:00;101600.0;;;20.3;68.5
78679;BME280;67994;59.334;13.528;2023-07-08T05:03:00;101600.0;;;19.9;68.3
78679;BME280;67994;59.334;13.528;2023-07-08T05:04:00;101600.0;;;20.0;66.8
78679;BME280;67994;59.334;13.528;2023-07-08T05:05:00;101600.0;;;20.4;68.5
78679;BME280;67994;59.334;13.528;2023-07-08T05:06:00;101600.0;;;20.4;68.0
78679;BME280;67994;59.334;13.528;2023-07-08T05:07:00;101600.0;;;20.3;68.3
78679;BME280;67994;59.334;13.528;2023-07-08T05:08:00;101600.0;;;20.5;68.8
78679;BME280;67994;59.334;13.528;2023-07-08T05:09:01;101600.0;;;20.2;67.6
78679;BME280;67994;59.334;13.528;2023-07-08T05:10:00;101600.0;;;20.0;68.6
78679;BME280;67994;59.334;13.528;2023-07-08T05:11:00;101600.0;;;20.2;68.3
78679;BME280;67994;59.334;13.528;2023-07-08T05:12:00;101600.0;;;20.2;68.0
78679;BME280;67994;59.334;13.528;2023-07-08T05:13:00;101600.0;;;20.5;66.9
78679;BME280;67994;59.334;13.528;2023-07-08T05:14:00;101600.0;;;20.3;68.8
78679;BME280;67994;59.334;13.528;2023-07-08T05:15:00;101600.0;;;20.5;67.7
78679;BME280;67994;59.334;13.528;2023-07-08T05:16:00;101600.0;;;20.6;66.6
78679;BME280;67994;59.334;13.528;2023-07-08T05:17:00;101600.0;;;20.4;67.3
78679;BME280;67994;59.334;13.528;2023-07-08T05:18:00;101600.0;;;20.5;67.7
78679;BME280;67994;59.334;13.528;2023-07-08T05:19:00;101600.0;;;20.7;67.8
78679;BME280;67994;59.334;13.528;2023-07-08T05:20:00;101600.0;;;19.9;68.2
78679;BME280;67994;59.334;13.528;2023-07-08T05:21:02;101600.0;;;20.2;68.8
78679;BME280;67994;59.334;13.528;2023-07-08T05:22:00;101600.0;;;20.2;68.8